Time;durP1;ratioP1;P1;durP2;ratioP2;P2;SDS_P1;SDS_P2;PMS_P1;PMS_P2;Temp;Humidity;BMP_temperature;BMP_pressure;BME280_temperature;BME280_humidity;BME280_pressure;Samples;Min_cycle;Max_cycle;Signal;HPM_P1;HPM_P2
2022/04/19 00:00:55;;;;;;;23.92;10.05;;;5.80;57.10;;;;;;4090069;28;20039;-82
2022/04/19 00:02:55;;;;;;;24.50;9.77;;;5.70;57.00;;;;;;4084543;28;20027;-84
2022/04/19 00:04:58;;;;;;;21.38;8.45;;;5.70;57.20;;;;;;4104320;28;20104;-83
2022/04/19 00:06:59;;;;;;;22.35;8.52;;;5.60;57.10;;;;;;4105128;28;20031;-83
2022/04/19 00:08:59;;;;;;;21.88;8.57;;;5.60;57.10;;;;;;4089843;28;20050;-82
2022/04/19 00:11:01;;;;;;;21.27;8.25;;;5.50;57.20;;;;;;4091930;28;20032;-85
2022/04/19 00:13:04;;;;;;;19.52;7.43;;;5.50;57.30;;;;;;4083116;28;20031;-84
2022/04/19 00:15:06;;;;;;;18.45;7.95;;;5.50;57.70;;;;;;4085762;28;20031;-85
2022/04/19 00:17:07;;;;;;;20.98;7.03;;;5.50;57.50;;;;;;4089249;28;20035;-83
2022/04/19 00:19:07;;;;;;;21.45;7.70;;;5.50;57.50;;;;;;4087586;28;20031;-82
2022/04/19 00:21:08;;;;;;;18.30;7.63;;;5.40;57.50;;;;;;4086795;28;20780;-82
2022/04/19 00:23:13;;;;;;;18.05;7.00;;;5.40;57.70;;;;;;4101787;28;20153;-84
2022/04/19 00:25:13;;;;;;;17.63;6.85;;;5.30;57.80;;;;;;4085467;28;20793;-82
2022/04/19 00:27:14;;;;;;;22.38;7.78;;;5.30;57.90;;;;;;4087976;28;20031;-83
2022/04/19 00:29:15;;;;;;;18.52;6.97;;;5.20;57.90;;;;;;4088281;28;20043;-82
2022/04/19 00:31:15;;;;;;;21.20;7.68;;;5.30;58.20;;;;;;4089062;28;20043;-82
2022/04/19 00:33:16;;;;;;;16.38;6.47;;;5.20;58.30;;;;;;4087353;28;20035;-84
2022/04/19 00:35:17;;;;;;;14.13;6.03;;;5.20;58.30;;;;;;4075899;28;20035;-84
2022/04/19 00:37:19;;;;;;;15.65;6.75;;;5.20;58.30;;;;;;4085917;28;20034;-83
2022/04/19 00:39:19;;;;;;;19.40;7.22;;;5.10;58.40;;;;;;4090981;28;20574;-83
2022/04/19 00:41:20;;;;;;;18.52;7.30;;;5.20;58.60;;;;;;4087562;28;20039;-83
2022/04/19 00:43:21;;;;;;;15.43;6.20;;;5.10;58.50;;;;;;4082055;28;20032;-83
2022/04/19 00:45:23;;;;;;;16.90;6.88;;;5.20;58.60;;;;;;4086740;28;20035;-83
2022/04/19 00:47:23;;;;;;;19.02;6.93;;;5.00;58.60;;;;;;4087841;28;20122;-83
2022/04/19 00:49:24;;;;;;;16.77;6.70;;;5.00;58.60;;;;;;4087440;28;20027;-82
2022/04/19 00:51:26;;;;;;;14.85;6.18;;;5.00;58.60;;;;;;4067533;29;20024;-82
2022/04/19 00:53:27;;;;;;;14.85;5.78;;;5.00;58.70;;;;;;4086287;28;20054;-82
2022/04/19 00:55:29;;;;;;;14.30;5.93;;;4.90;58.70;;;;;;4102710;28;20105;-82
2022/04/19 00:57:32;;;;;;;13.32;5.68;;;4.90;58.70;;;;;;4087200;28;20031;-83
2022/04/19 00:59:33;;;;;;;12.85;5.72;;;4.90;58.70;;;;;;4089768;28;20074;-82
2022/04/19 01:01:37;;;;;;;14.43;5.65;;;4.90;58.80;;;;;;4085073;28;20618;-82
2022/04/19 01:03:38;;;;;;;16.08;6.30;;;4.80;58.80;;;;;;4087990;28;20126;-83
2022/04/19 01:05:38;;;;;;;17.30;6.25;;;4.80;58.70;;;;;;4087863;28;20503;-82
2022/04/19 01:07:39;;;;;;;15.63;5.95;;;4.80;59.30;;;;;;4092641;28;20101;-82
2022/04/19 01:09:40;;;;;;;21.70;6.40;;;4.70;58.80;;;;;;4092351;28;20142;-82
2022/04/19 01:14:04;;;;;;;18.40;6.72;;;4.70;58.90;;;;;;4090441;28;20031;-82
2022/04/19 01:16:05;;;;;;;17.52;6.90;;;4.60;58.90;;;;;;4090365;28;20027;-82
2022/04/19 01:18:08;;;;;;;16.45;6.35;;;4.60;59.00;;;;;;4087861;28;20832;-82
2022/04/19 01:20:10;;;;;;;20.65;6.72;;;4.60;59.00;;;;;;4105715;28;20451;-83
2022/04/19 01:22:12;;;;;;;15.47;6.67;;;4.60;59.10;;;;;;4108509;28;20039;-82
2022/04/19 01:24:21;;;;;;;22.25;7.20;;;4.60;59.10;;;;;;4093576;28;20042;-82
2022/04/19 01:26:21;;;;;;;17.42;6.65;;;4.50;59.10;;;;;;4093186;28;20023;-82
2022/04/19 01:28:22;;;;;;;17.33;7.03;;;4.50;59.20;;;;;;4094456;28;20140;-82
2022/04/19 01:30:23;;;;;;;13.38;6.15;;;4.50;59.30;;;;;;4108438;28;20038;-82
2022/04/19 01:32:25;;;;;;;15.88;6.22;;;4.40;59.30;;;;;;4094263;28;20057;-81
2022/04/19 01:34:27;;;;;;;15.82;6.43;;;4.40;59.40;;;;;;4106171;28;20027;-83
2022/04/19 01:36:28;;;;;;;16.45;6.25;;;4.40;59.40;;;;;;4090654;28;20035;-82
2022/04/19 01:38:28;;;;;;;14.45;6.63;;;4.40;59.30;;;;;;4095654;28;20035;-82
2022/04/19 01:40:29;;;;;;;15.00;6.32;;;4.30;59.30;;;;;;4092912;28;20046;-82
2022/04/19 01:42:31;;;;;;;15.52;6.07;;;4.30;60.00;;;;;;4093873;28;20039;-82
2022/04/19 01:44:38;;;;;;;15.18;6.10;;;4.30;59.40;;;;;;4093341;28;20385;-82
2022/04/19 01:46:39;;;;;;;17.73;6.43;;;4.30;59.50;;;;;;4096132;28;20120;-82
2022/04/19 01:48:40;;;;;;;17.67;6.25;;;4.20;59.60;;;;;;4101215;28;20037;-83
2022/04/19 01:50:41;;;;;;;18.55;7.30;;;4.20;59.70;;;;;;4092052;28;20058;-82
2022/04/19 01:52:43;;;;;;;17.38;6.63;;;4.20;59.70;;;;;;4108430;28;20037;-82
2022/04/19 01:54:44;;;;;;;18.30;7.00;;;4.10;59.80;;;;;;4093018;28;20042;-82
2022/04/19 01:56:44;;;;;;;18.58;6.78;;;4.10;59.80;;;;;;4113040;28;20026;-82
2022/04/19 01:58:45;;;;;;;16.23;6.65;;;4.10;59.90;;;;;;4112869;28;20042;-83
2022/04/19 02:00:46;;;;;;;19.05;6.72;;;4.10;59.90;;;;;;4091891;28;20045;-81
2022/04/19 02:02:48;;;;;;;19.35;7.38;;;4.20;60.10;;;;;;4090638;28;20066;-82
2022/04/19 02:04:50;;;;;;;16.27;7.15;;;4.10;60.10;;;;;;4095466;28;20023;-83
2022/04/19 02:06:51;;;;;;;18.45;6.68;;;4.00;60.10;;;;;;4094599;28;20027;-83
2022/04/19 02:08:52;;;;;;;19.55;7.13;;;4.00;60.20;;;;;;4089609;28;20054;-81
2022/04/19 02:10:52;;;;;;;18.55;6.90;;;4.00;60.10;;;;;;4092198;28;20037;-83
2022/04/19 02:12:53;;;;;;;15.32;6.28;;;4.00;60.20;;;;;;4106383;28;20460;-82
2022/04/19 02:14:54;;;;;;;18.25;7.03;;;4.00;60.30;;;;;;4090592;28;20023;-82
2022/04/19 02:16:56;;;;;;;16.58;6.43;;;3.90;60.30;;;;;;4091817;28;20020;-82
2022/04/19 02:18:56;;;;;;;18.83;7.28;;;4.00;60.40;;;;;;4088471;28;20023;-82
2022/04/19 02:20:58;;;;;;;16.77;7.00;;;3.90;60.40;;;;;;4087600;28;20035;-83
2022/04/19 02:23:00;;;;;;;19.52;7.70;;;3.90;60.70;;;;;;4089903;28;20066;-82
2022/04/19 02:25:01;;;;;;;17.95;6.97;;;3.80;60.70;;;;;;4087514;28;20030;-82
2022/04/19 02:27:03;;;;;;;20.17;7.35;;;3.90;60.90;;;;;;4088406;28;20118;-83
2022/04/19 02:29:03;;;;;;;16.45;6.90;;;3.80;60.90;;;;;;4088152;28;20034;-83
2022/04/19 02:31:04;;;;;;;18.25;7.70;;;3.80;60.90;;;;;;4106958;28;20078;-83
2022/04/19 02:33:05;;;;;;;19.05;7.30;;;3.80;60.90;;;;;;4084267;28;20057;-83
2022/04/19 02:35:06;;;;;;;19.08;7.50;;;3.80;60.90;;;;;;4083238;28;20023;-83
2022/04/19 02:37:07;;;;;;;17.67;6.72;;;3.80;60.90;;;;;;4088056;28;20455;-83
2022/04/19 02:39:07;;;;;;;16.55;7.32;;;3.80;61.00;;;;;;4108249;28;20065;-82
2022/04/19 02:41:08;;;;;;;19.23;8.23;;;3.70;61.00;;;;;;4087860;28;20062;-82
2022/04/19 02:43:09;;;;;;;17.60;7.28;;;3.70;61.10;;;;;;4090411;28;20047;-83
2022/04/19 02:45:09;;;;;;;16.45;7.47;;;3.70;61.10;;;;;;4107421;28;22635;-82
2022/04/19 02:47:10;;;;;;;23.95;8.05;;;3.70;61.20;;;;;;4090335;28;20503;-82
2022/04/19 02:49:11;;;;;;;23.08;9.10;;;3.60;61.20;;;;;;4107327;28;20039;-82
2022/04/19 02:51:12;;;;;;;17.25;7.82;;;3.60;61.30;;;;;;4086125;28;20908;-81
2022/04/19 02:53:13;;;;;;;23.48;8.13;;;3.60;61.40;;;;;;4087269;28;20031;-82
2022/04/19 02:55:14;;;;;;;23.38;7.85;;;3.70;61.60;;;;;;4102747;28;20079;-82
2022/04/19 02:57:15;;;;;;;20.73;7.93;;;3.60;61.50;;;;;;4107886;28;20034;-82
2022/04/19 02:59:15;;;;;;;22.88;9.00;;;3.60;61.60;;;;;;4092230;28;20023;-82
2022/04/19 03:01:16;;;;;;;24.15;9.40;;;3.60;61.60;;;;;;4090489;28;20027;-83
2022/04/19 03:03:17;;;;;;;24.90;9.82;;;3.70;61.80;;;;;;4099111;28;20503;-82
2022/04/19 03:05:19;;;;;;;18.60;7.88;;;3.60;61.90;;;;;;4088839;28;20059;-82
2022/04/19 03:07:20;;;;;;;17.02;7.65;;;3.60;62.20;;;;;;4086862;28;20410;-82
2022/04/19 03:09:20;;;;;;;20.65;8.10;;;3.50;62.20;;;;;;4091275;28;20109;-82
2022/04/19 03:11:21;;;;;;;19.95;8.10;;;3.50;62.40;;;;;;4084610;28;20675;-82
2022/04/19 03:13:22;;;;;;;23.25;8.80;;;3.60;62.30;;;;;;4086079;28;20105;-83
2022/04/19 03:15:22;;;;;;;19.42;8.70;;;3.60;62.20;;;;;;4105339;28;20150;-83
2022/04/19 03:17:23;;;;;;;21.88;9.55;;;3.40;62.10;;;;;;4088468;28;20031;-83
2022/04/19 03:19:24;;;;;;;24.25;10.25;;;3.40;62.30;;;;;;4089893;28;20625;-82
2022/04/19 03:21:25;;;;;;;23.77;10.23;;;3.40;62.40;;;;;;4087374;28;20039;-83
2022/04/19 03:28:04;;;;;;;20.85;7.95;;;3.40;63.20;;;;;;4092294;28;20058;-84
2022/04/19 03:30:06;;;;;;;23.98;8.18;;;3.30;63.30;;;;;;4088987;28;20027;-83
2022/04/19 03:32:09;;;;;;;20.67;8.13;;;3.30;63.40;;;;;;4102174;28;20594;-83
2022/04/19 03:34:11;;;;;;;18.83;7.57;;;3.30;63.40;;;;;;4088422;28;20028;-83
2022/04/19 03:36:11;;;;;;;20.10;8.52;;;3.30;63.50;;;;;;4088731;28;20031;-82
2022/04/19 03:38:12;;;;;;;20.98;8.70;;;3.30;63.60;;;;;;4086550;28;20023;-83
2022/04/19 03:40:14;;;;;;;24.67;9.52;;;3.40;63.70;;;;;;4085399;28;20571;-82
2022/04/19 03:42:14;;;;;;;24.70;9.27;;;3.30;63.70;;;;;;4102529;28;20070;-83
2022/04/19 03:44:15;;;;;;;20.58;8.27;;;3.30;63.70;;;;;;4085722;28;20151;-83
2022/04/19 03:46:16;;;;;;;21.80;8.90;;;3.20;63.70;;;;;;4087096;28;21549;-83
2022/04/19 03:48:16;;;;;;;23.95;9.80;;;3.20;63.70;;;;;;4080032;28;20076;-83
2022/04/19 03:50:17;;;;;;;24.80;9.57;;;3.20;63.80;;;;;;4087120;28;20038;-82
2022/04/19 03:52:18;;;;;;;24.27;10.18;;;3.20;63.80;;;;;;4082612;28;20054;-83
2022/04/19 03:54:19;;;;;;;23.30;9.60;;;3.20;63.70;;;;;;4085537;28;20109;-83
2022/04/19 03:56:19;;;;;;;21.02;9.13;;;3.20;63.80;;;;;;4097093;28;20062;-82
2022/04/19 03:58:20;;;;;;;25.48;10.02;;;3.20;63.80;;;;;;4088757;28;20102;-83
2022/04/19 04:00:23;;;;;;;22.77;9.27;;;3.20;63.80;;;;;;4085406;28;20098;-83
2022/04/19 04:02:24;;;;;;;20.80;8.85;;;3.10;63.80;;;;;;4084735;28;20031;-83
2022/04/19 04:04:30;;;;;;;21.92;9.52;;;3.10;63.90;;;;;;4097186;28;20491;-83
2022/04/19 04:06:31;;;;;;;22.55;9.52;;;3.20;64.10;;;;;;4090492;28;20033;-82
2022/04/19 04:08:32;;;;;;;22.08;9.63;;;3.10;64.00;;;;;;4086439;28;20509;-84
2022/04/19 04:10:33;;;;;;;21.92;9.35;;;3.10;64.00;;;;;;4090517;28;20041;-84
2022/04/19 04:12:34;;;;;;;24.20;10.75;;;3.10;64.00;;;;;;4088773;28;20054;-83
2022/04/19 04:14:36;;;;;;;25.73;10.13;;;3.00;64.20;;;;;;4092750;28;20047;-85
2022/04/19 04:16:37;;;;;;;22.27;9.77;;;3.00;64.40;;;;;;4087850;28;20376;-83
2022/04/19 04:18:39;;;;;;;23.65;10.30;;;3.00;64.50;;;;;;4085354;28;20460;-83
2022/04/19 04:20:40;;;;;;;21.67;9.57;;;3.00;64.70;;;;;;4086662;28;20023;-84
2022/04/19 04:22:41;;;;;;;26.30;10.00;;;3.00;64.70;;;;;;4097924;28;20587;-84
2022/04/19 04:24:41;;;;;;;23.85;10.40;;;3.00;64.80;;;;;;4085363;28;20767;-83
2022/04/19 04:26:42;;;;;;;30.15;11.25;;;3.00;64.90;;;;;;4082065;28;20042;-83
2022/04/19 04:28:42;;;;;;;27.23;10.70;;;3.00;65.10;;;;;;4091549;28;20034;-84
2022/04/19 04:30:43;;;;;;;23.50;10.00;;;3.00;65.10;;;;;;4086883;28;20043;-84
2022/04/19 04:32:44;;;;;;;23.10;9.55;;;3.00;65.30;;;;;;4093516;28;20387;-83
2022/04/19 04:34:45;;;;;;;26.48;10.20;;;3.00;65.30;;;;;;4094077;28;20200;-84
2022/04/19 04:36:46;;;;;;;22.13;9.88;;;3.00;65.40;;;;;;4084335;28;20200;-84
2022/04/19 04:38:47;;;;;;;23.95;9.70;;;3.00;65.40;;;;;;4089173;28;20035;-84
2022/04/19 04:40:48;;;;;;;24.38;10.63;;;3.00;65.50;;;;;;4087343;28;20027;-84
2022/04/19 04:42:48;;;;;;;22.42;9.57;;;3.00;65.50;;;;;;4106058;28;20035;-84
2022/04/19 04:44:49;;;;;;;20.38;9.20;;;3.00;65.50;;;;;;4084749;28;20137;-83
2022/04/19 04:51:28;;;;;;;33.03;12.18;;;3.00;66.20;;;;;;4093040;28;20039;-80
2022/04/19 04:53:30;;;;;;;32.95;14.70;;;3.00;66.60;;;;;;4098150;28;20038;-85
2022/04/19 04:55:31;;;;;;;29.85;11.98;;;3.00;66.70;;;;;;4104719;28;20115;-88
2022/04/19 04:57:32;;;;;;;30.40;12.77;;;3.10;66.90;;;;;;4107665;28;20027;-88
2022/04/19 04:59:33;;;;;;;23.52;10.10;;;3.10;67.00;;;;;;4113237;28;20038;-87
2022/04/19 05:01:34;;;;;;;30.85;11.70;;;3.10;67.10;;;;;;4104048;28;20035;-87
2022/04/19 05:03:36;;;;;;;29.92;11.45;;;3.10;67.20;;;;;;4107527;28;20043;-86
2022/04/19 05:05:37;;;;;;;26.30;11.45;;;3.20;67.40;;;;;;4105451;29;20027;-86
2022/04/19 05:07:38;;;;;;;26.40;11.07;;;3.20;67.60;;;;;;4119833;28;20552;-88
2022/04/19 05:09:39;;;;;;;25.65;10.30;;;3.30;67.90;;;;;;4118309;28;20051;-87
2022/04/19 05:11:40;;;;;;;28.60;11.68;;;3.30;68.00;;;;;;4106562;28;20063;-87
2022/04/19 05:13:40;;;;;;;29.75;10.93;;;3.30;68.10;;;;;;4104384;28;20058;-85
2022/04/19 05:15:41;;;;;;;29.88;10.95;;;3.30;68.20;;;;;;4106155;29;20038;-87
2022/04/19 05:17:42;;;;;;;35.60;12.23;;;3.40;68.40;;;;;;4105802;28;20027;-86
2022/04/19 05:19:42;;;;;;;34.38;11.68;;;3.40;68.70;;;;;;4105194;28;20027;-85
2022/04/19 05:21:43;;;;;;;29.63;11.57;;;3.40;68.90;;;;;;4099327;28;20125;-89
2022/04/19 05:23:43;;;;;;;28.45;12.02;;;3.50;69.20;;;;;;4116798;28;20053;-86
2022/04/19 05:25:44;;;;;;;30.35;11.73;;;3.50;69.40;;;;;;4105497;28;20493;-85
2022/04/19 05:27:45;;;;;;;27.02;11.07;;;3.60;69.70;;;;;;4107120;28;20062;-85
2022/04/19 05:29:45;;;;;;;27.92;12.02;;;3.60;70.10;;;;;;4109236;28;20066;-88
2022/04/19 05:31:46;;;;;;;30.33;12.35;;;3.70;70.60;;;;;;4106785;28;20039;-87
2022/04/19 05:33:47;;;;;;;28.25;12.18;;;3.80;71.00;;;;;;4103522;28;20035;-85
2022/04/19 05:35:47;;;;;;;32.67;13.45;;;3.90;72.30;;;;;;4102209;29;20023;-85
2022/04/19 05:37:48;;;;;;;33.50;12.80;;;3.90;72.20;;;;;;4112275;28;20082;-90
2022/04/19 05:39:48;;;;;;;34.63;13.57;;;4.10;73.00;;;;;;4104144;28;20136;-88
2022/04/19 05:41:49;;;;;;;33.70;13.43;;;4.20;73.70;;;;;;4121623;28;20031;-85
2022/04/19 05:43:50;;;;;;;32.30;13.05;;;4.30;74.40;;;;;;4103680;28;20031;-86
2022/04/19 05:45:51;;;;;;;41.47;14.35;;;4.50;75.10;;;;;;4102915;28;20023;-89
2022/04/19 05:47:51;;;;;;;38.25;13.68;;;4.60;75.60;;;;;;4107285;28;20034;-86
2022/04/19 05:49:52;;;;;;;36.55;12.63;;;4.70;75.60;;;;;;4101700;29;20090;-87
2022/04/19 05:51:54;;;;;;;36.28;13.65;;;4.90;75.40;;;;;;4104846;28;20436;-84
2022/04/19 05:53:55;;;;;;;42.67;13.75;;;5.00;75.20;;;;;;4096621;28;20050;-85
2022/04/19 05:55:55;;;;;;;37.53;14.00;;;5.20;75.10;;;;;;4098749;28;20038;-86
2022/04/19 05:57:56;;;;;;;30.05;13.25;;;5.30;75.10;;;;;;4087952;29;20035;-86
2022/04/19 05:59:56;;;;;;;35.63;13.15;;;5.40;74.60;;;;;;4098001;29;20030;-85
2022/04/19 06:06:35;;;;;;;43.95;14.32;;;5.80;75.30;;;;;;4099253;28;20031;-88
2022/04/19 06:08:36;;;;;;;34.58;14.52;;;5.90;75.50;;;;;;4097385;29;20067;-86
2022/04/19 06:10:37;;;;;;;41.10;16.55;;;6.10;76.00;;;;;;4118813;28;20031;-85
2022/04/19 06:12:38;;;;;;;42.95;16.80;;;6.20;75.50;;;;;;4100324;28;20170;-85
2022/04/19 06:14:39;;;;;;;39.97;16.55;;;6.30;75.10;;;;;;4095984;28;20024;-86
2022/04/19 06:16:39;;;;;;;42.17;17.35;;;6.50;75.20;;;;;;4097057;28;20093;-85
2022/04/19 06:18:40;;;;;;;41.63;16.30;;;6.60;74.70;;;;;;4089942;28;20071;-85
2022/04/19 06:20:41;;;;;;;34.20;14.70;;;6.60;73.90;;;;;;4098595;29;20127;-87
2022/04/19 06:22:41;;;;;;;34.30;14.40;;;6.80;73.50;;;;;;4114577;28;20030;-86
2022/04/19 06:24:42;;;;;;;37.17;15.57;;;6.90;73.10;;;;;;4099383;28;20521;-88
2022/04/19 06:26:42;;;;;;;36.38;13.93;;;6.90;73.00;;;;;;4116920;28;20043;-85
2022/04/19 06:28:43;;;;;;;35.42;14.95;;;7.10;72.60;;;;;;4101261;28;20459;-87
2022/04/19 06:30:44;;;;;;;34.35;14.77;;;7.10;72.50;;;;;;4099906;28;20094;-86
2022/04/19 06:32:45;;;;;;;32.65;13.32;;;7.20;72.10;;;;;;4090580;28;20047;-85
2022/04/19 06:34:46;;;;;;;44.90;14.55;;;7.20;71.80;;;;;;4083350;29;20457;-86
2022/04/19 06:36:47;;;;;;;35.67;14.18;;;7.30;71.50;;;;;;4087742;28;20571;-89
2022/04/19 06:38:47;;;;;;;33.47;13.77;;;7.30;71.40;;;;;;4110914;28;20085;-88
2022/04/19 06:40:48;;;;;;;31.60;13.68;;;7.40;71.00;;;;;;4095812;28;20028;-86
2022/04/19 06:42:49;;;;;;;33.83;13.70;;;7.50;70.80;;;;;;4096167;28;20488;-85
2022/04/19 06:44:50;;;;;;;31.63;13.48;;;7.50;70.70;;;;;;4100604;29;20082;-89
2022/04/19 06:46:50;;;;;;;31.27;12.80;;;7.60;70.40;;;;;;4097476;28;20150;-87
2022/04/19 06:48:55;;;;;;;30.27;12.75;;;7.60;70.00;;;;;;4086892;28;20034;-86
2022/04/19 06:50:55;;;;;;;32.25;12.73;;;7.70;69.70;;;;;;4097499;28;20081;-85
2022/04/19 06:52:56;;;;;;;35.30;12.85;;;7.60;69.30;;;;;;4099891;28;20019;-86
2022/04/19 06:54:57;;;;;;;31.98;12.73;;;7.70;69.10;;;;;;4112086;28;20090;-86
2022/04/19 06:56:58;;;;;;;33.13;13.13;;;7.80;69.10;;;;;;4073184;29;20862;-86
2022/04/19 06:58:59;;;;;;;33.92;13.27;;;7.80;68.80;;;;;;4096402;29;20094;-85
2022/04/19 07:01:00;;;;;;;28.25;12.52;;;7.90;68.70;;;;;;4102085;28;20031;-86
2022/04/19 07:03:01;;;;;;;24.95;12.18;;;7.90;68.50;;;;;;4070739;29;20438;-85
2022/04/19 07:05:01;;;;;;;31.83;12.52;;;7.90;68.40;;;;;;4094203;28;20027;-88
2022/04/19 07:07:03;;;;;;;29.67;12.57;;;8.00;68.30;;;;;;4093040;28;20035;-86
2022/04/19 07:09:04;;;;;;;36.45;11.85;;;8.00;67.90;;;;;;4098495;28;20031;-86
2022/04/19 07:11:05;;;;;;;30.17;11.80;;;8.20;67.80;;;;;;4085076;28;20067;-85
2022/04/19 07:13:06;;;;;;;25.52;12.20;;;8.10;67.60;;;;;;4093466;28;20067;-86
2022/04/19 07:15:08;;;;;;;29.55;12.57;;;8.20;67.60;;;;;;4096324;28;20043;-85
2022/04/19 07:17:09;;;;;;;35.38;12.13;;;8.20;67.60;;;;;;4109552;28;20035;-87
2022/04/19 07:19:10;;;;;;;25.42;11.52;;;8.30;67.60;;;;;;4090122;28;20031;-88
2022/04/19 07:28:08;;;;;;;32.15;10.90;;;8.60;67.40;;;;;;4116330;28;20262;-86
2022/04/19 07:30:10;;;;;;;24.05;10.75;;;8.70;66.40;;;;;;4101587;28;20031;-89
2022/04/19 07:32:11;;;;;;;31.65;11.10;;;8.70;66.10;;;;;;4110367;28;20161;-86
2022/04/19 07:34:13;;;;;;;30.73;10.43;;;8.80;66.00;;;;;;4098498;28;20027;-86
2022/04/19 07:36:13;;;;;;;24.02;10.18;;;8.90;65.90;;;;;;4098363;28;20476;-87
2022/04/19 07:38:14;;;;;;;24.52;10.07;;;9.10;65.70;;;;;;4088575;28;20095;-86
2022/04/19 07:40:15;;;;;;;24.52;10.30;;;9.10;65.30;;;;;;4097389;29;20058;-86
2022/04/19 07:42:15;;;;;;;28.55;9.57;;;9.20;63.70;;;;;;4091693;29;20087;-89
2022/04/19 07:44:16;;;;;;;20.95;9.05;;;9.30;61.60;;;;;;4095995;28;20083;-86
2022/04/19 07:46:17;;;;;;;23.30;9.50;;;9.50;61.20;;;;;;4097310;28;20094;-86
2022/04/19 07:48:18;;;;;;;30.65;9.23;;;9.50;60.70;;;;;;4095586;28;20306;-86
2022/04/19 07:50:19;;;;;;;27.83;10.07;;;9.60;59.80;;;;;;4095732;29;20098;-86
2022/04/19 07:52:19;;;;;;;28.83;9.45;;;9.70;58.60;;;;;;4098102;28;20471;-86
2022/04/19 07:54:20;;;;;;;23.95;9.63;;;9.90;58.90;;;;;;4111436;28;20419;-88
2022/04/19 07:56:22;;;;;;;30.17;9.95;;;10.00;57.70;;;;;;4097512;28;20027;-86
2022/04/19 07:58:22;;;;;;;28.85;10.43;;;10.00;57.70;;;;;;4096203;28;21370;-88
2022/04/19 08:00:27;;;;;;;21.63;10.25;;;10.10;57.70;;;;;;4093918;28;20114;-85
2022/04/19 08:02:30;;;;;;;23.92;10.40;;;10.20;57.20;;;;;;4104827;28;20067;-89
2022/04/19 08:04:31;;;;;;;;;;;10.20;56.70;;;;;;4102276;28;20023;-89
2022/04/19 08:06:31;;;;;;;22.08;9.80;;;10.20;56.70;;;;;;4098737;29;19910;-86
2022/04/19 08:08:32;;;;;;;20.38;9.60;;;10.30;56.90;;;;;;4099717;28;20133;-86
2022/04/19 08:10:33;;;;;;;20.92;9.27;;;10.40;57.30;;;;;;4087175;28;20023;-87
2022/04/19 08:12:34;;;;;;;20.08;9.38;;;10.40;56.90;;;;;;4107927;28;20023;-87
2022/04/19 08:14:34;;;;;;;23.60;9.32;;;10.50;56.50;;;;;;4106255;28;20408;-86
2022/04/19 08:16:35;;;;;;;18.33;8.05;;;10.50;56.60;;;;;;4100950;28;20035;-87
2022/04/19 08:18:36;;;;;;;16.90;7.93;;;10.60;55.80;;;;;;4110795;28;20027;-89
2022/04/19 08:20:37;;;;;;;21.90;8.75;;;10.80;55.80;;;;;;4100748;28;20031;-86
2022/04/19 08:22:37;;;;;;;17.80;7.68;;;10.80;53.90;;;;;;4113360;28;20228;-86
2022/04/19 08:24:38;;;;;;;20.65;9.15;;;10.90;54.10;;;;;;4116575;28;20052;-89
2022/04/19 08:26:39;;;;;;;18.27;8.98;;;11.00;54.30;;;;;;4089926;28;20034;-86
2022/04/19 08:28:39;;;;;;;18.52;8.63;;;11.10;53.20;;;;;;4100631;28;20035;-86
2022/04/19 08:30:40;;;;;;;19.75;8.98;;;11.20;53.80;;;;;;4098860;28;20032;-88
2022/04/19 08:32:42;;;;;;;21.08;8.98;;;11.30;52.70;;;;;;4103230;28;20028;-89
2022/04/19 08:34:45;;;;;;;17.23;8.65;;;11.30;52.50;;;;;;4108730;28;20027;-89
2022/04/19 08:36:46;;;;;;;20.52;9.45;;;11.50;52.00;;;;;;4103927;28;20118;-86
2022/04/19 08:38:47;;;;;;;17.67;8.35;;;11.50;51.80;;;;;;4098920;29;20019;-87
2022/04/19 08:40:48;;;;;;;20.00;9.45;;;11.50;52.00;;;;;;4098586;28;20109;-86
2022/04/19 08:42:48;;;;;;;21.27;9.45;;;11.60;52.60;;;;;;4115798;28;20770;-86
2022/04/19 08:44:49;;;;;;;20.52;9.07;;;11.70;51.10;;;;;;4113834;28;20538;-90
2022/04/19 08:46:50;;;;;;;20.95;8.98;;;11.70;50.60;;;;;;4101619;28;20035;-86
2022/04/19 08:48:51;;;;;;;18.00;8.52;;;11.80;49.10;;;;;;4098742;28;20038;-86
2022/04/19 08:50:54;;;;;;;19.52;9.20;;;11.90;49.60;;;;;;4086702;29;20051;-88
2022/04/19 08:57:35;;;;;;;22.38;8.77;;;12.20;48.80;;;;;;4097973;29;20408;-90
2022/04/19 08:59:35;;;;;;;17.52;8.35;;;12.30;48.90;;;;;;4097967;28;20514;-86
2022/04/19 09:01:36;;;;;;;20.08;8.68;;;12.30;49.20;;;;;;4085811;28;20058;-89
2022/04/19 09:03:38;;;;;;;16.00;7.97;;;12.30;48.20;;;;;;4098633;29;20059;-88
2022/04/19 09:05:52;;;;;;;19.27;8.70;;;12.40;48.00;;;;;;4094665;29;20031;-90
2022/04/19 09:07:57;;;;;;;20.85;8.55;;;12.50;47.90;;;;;;4098342;29;20175;-87
2022/04/19 09:09:59;;;;;;;18.35;8.75;;;12.50;47.90;;;;;;4092580;28;20082;-86
2022/04/19 09:12:12;;;;;;;17.17;8.25;;;12.50;48.10;;;;;;4097083;28;20031;-86
2022/04/19 09:14:13;;;;;;;16.17;8.18;;;12.50;48.10;;;;;;4096852;28;20110;-87
2022/04/19 09:16:14;;;;;;;20.02;7.57;;;12.50;47.00;;;;;;4098947;29;20027;-86
2022/04/19 09:18:29;;;;;;;21.63;8.55;;;12.60;47.10;;;;;;4096851;29;20262;-87
2022/04/19 09:20:31;;;;;;;16.60;8.02;;;12.50;46.50;;;;;;4111006;28;20431;-87
2022/04/19 09:22:32;;;;;;;17.25;7.18;;;12.60;45.60;;;;;;4098209;28;20106;-86
2022/04/19 09:24:34;;;;;;;16.50;7.78;;;12.50;45.30;;;;;;4094925;28;20070;-86
2022/04/19 09:26:44;;;;;;;16.67;7.93;;;12.60;44.40;;;;;;4108026;28;20143;-86
2022/04/19 09:28:45;;;;;;;17.55;7.95;;;12.50;42.90;;;;;;4096755;28;20035;-87
2022/04/19 09:30:51;;;;;;;19.10;7.82;;;12.50;43.70;;;;;;4111160;28;20054;-89
2022/04/19 09:33:04;;;;;;;15.60;7.70;;;12.60;44.30;;;;;;4094023;28;20023;-90
2022/04/19 09:35:05;;;;;;;14.93;7.68;;;12.60;43.00;;;;;;4097996;29;20030;-88
2022/04/19 09:37:10;;;;;;;16.15;7.55;;;12.70;43.40;;;;;;4083940;29;20020;-89
2022/04/19 09:39:27;;;;;;;17.30;8.35;;;12.80;42.70;;;;;;4111044;28;20501;-87
2022/04/19 09:41:33;;;;;;;18.45;7.50;;;12.80;39.60;;;;;;4097310;28;20039;-86
2022/04/19 09:43:34;;;;;;;17.27;7.85;;;12.90;39.70;;;;;;4111049;28;20030;-86
2022/04/19 09:45:54;;;;;;;15.32;8.00;;;13.00;39.30;;;;;;4097219;29;20035;-88
2022/04/19 09:47:55;;;;;;;16.67;7.32;;;13.00;38.70;;;;;;4092843;29;20693;-88
2022/04/19 09:49:58;;;;;;;15.32;7.68;;;13.20;38.30;;;;;;4100527;28;20027;-86
2022/04/19 09:51:59;;;;;;;19.27;8.13;;;13.20;38.10;;;;;;4098148;28;20031;-86
2022/04/19 09:53:59;;;;;;;19.52;8.55;;;13.20;36.80;;;;;;4098212;28;20511;-88
2022/04/19 09:56:06;;;;;;;18.65;8.18;;;13.20;35.70;;;;;;4098257;28;20023;-87
2022/04/19 09:58:07;;;;;;;19.17;8.43;;;13.30;36.80;;;;;;4097945;28;20039;-86
2022/04/19 10:00:11;;;;;;;22.23;8.68;;;13.30;36.90;;;;;;4080661;28;20107;-88
2022/04/19 10:09:05;;;;;;;18.67;8.90;;;13.40;37.70;;;;;;4096370;28;20023;-90
2022/04/19 10:11:07;;;;;;;17.25;7.75;;;13.40;36.50;;;;;;4097122;28;20036;-87
2022/04/19 10:13:08;;;;;;;18.30;7.97;;;13.50;38.00;;;;;;4095207;28;20031;-86
2022/04/19 10:15:10;;;;;;;19.35;9.13;;;13.50;37.70;;;;;;4112494;28;20030;-88
2022/04/19 10:17:12;;;;;;;21.38;9.40;;;13.60;37.10;;;;;;4090943;29;20038;-86
2022/04/19 10:19:14;;;;;;;20.65;9.80;;;13.60;36.60;;;;;;4093307;28;20102;-87
2022/04/19 10:21:18;;;;;;;21.20;9.73;;;13.60;36.10;;;;;;4097319;28;20031;-86
2022/04/19 10:23:19;;;;;;;23.05;9.80;;;13.60;36.50;;;;;;4094698;28;20032;-87
2022/04/19 10:25:20;;;;;;;20.98;8.63;;;13.60;36.30;;;;;;4112041;28;20069;-87
2022/04/19 10:27:30;;;;;;;16.48;8.13;;;13.60;36.90;;;;;;4099709;28;20027;-89
2022/04/19 10:29:32;;;;;;;21.95;9.40;;;13.60;37.20;;;;;;4096567;28;20035;-86
2022/04/19 10:31:37;;;;;;;18.75;9.23;;;13.60;37.70;;;;;;4097863;28;20027;-87
2022/04/19 10:33:48;;;;;;;21.60;8.65;;;13.60;37.60;;;;;;4094754;29;20652;-88
2022/04/19 10:36:11;;;;;;;24.13;9.93;;;13.70;37.40;;;;;;4094380;28;20075;-86
2022/04/19 10:38:22;;;;;;;22.17;9.32;;;13.60;36.00;;;;;;4093796;29;20045;-86
2022/04/19 10:40:24;;;;;;;18.90;9.10;;;13.70;38.30;;;;;;4097015;28;20031;-87
2022/04/19 10:42:36;;;;;;;20.48;9.18;;;13.80;38.60;;;;;;4071350;29;20030;-89
2022/04/19 10:44:43;;;;;;;24.88;9.63;;;13.90;39.10;;;;;;4094777;28;20027;-87
2022/04/19 10:46:43;;;;;;;21.58;9.63;;;14.00;39.00;;;;;;4109546;28;20101;-86
2022/04/19 10:49:23;;;;;;;19.85;8.95;;;14.00;39.10;;;;;;4095419;28;20681;-87
2022/04/19 10:51:30;;;;;;;24.13;10.13;;;14.00;38.00;;;;;;4064780;28;20047;-87
2022/04/19 10:53:33;;;;;;;25.85;11.05;;;14.10;40.20;;;;;;4111253;28;20038;-88
2022/04/19 10:55:35;;;;;;;21.42;10.07;;;14.10;39.90;;;;;;4096294;28;20066;-88
2022/04/19 10:59:59;;;;;;;20.85;9.20;;;14.20;39.20;;;;;;4096446;29;20038;-86
2022/04/19 11:02:00;;;;;;;24.17;10.38;;;14.20;39.00;;;;;;4095499;28;20039;-87
2022/04/19 11:04:00;;;;;;;22.83;9.57;;;14.20;40.30;;;;;;4111404;28;20117;-89
2022/04/19 11:06:09;;;;;;;22.38;9.52;;;14.20;38.90;;;;;;4095794;28;20508;-88